sensor_id;sensor_type;location;lat;lon;timestamp;temperature;humidity
4787;DHT22;62338;48.832;9.422;2022-10-17T00:00:37;16.50;1.00
4787;DHT22;62338;48.832;9.422;2022-10-17T00:02:39;16.60;1.00
4787;DHT22;62338;48.832;9.422;2022-10-17T00:04:41;16.80;1.00
4787;DHT22;62338;48.832;9.422;2022-10-17T00:06:42;16.80;1.00
4787;DHT22;62338;48.832;9.422;2022-10-17T00:08:44;16.90;99.90
4787;DHT22;62338;48.832;9.422;2022-10-17T00:10:59;17.00;1.00
4787;DHT22;62338;48.832;9.422;2022-10-17T00:13:01;17.00;1.00
4787;DHT22;62338;48.832;9.422;2022-10-17T00:15:05;17.00;1.00
4787;DHT22;62338;48.832;9.422;2022-10-17T00:17:07;17.00;1.00
4787;DHT22;62338;48.832;9.422;2022-10-17T00:19:08;17.10;1.00
4787;DHT22;62338;48.832;9.422;2022-10-17T00:21:17;17.10;1.00
4787;DHT22;62338;48.832;9.422;2022-10-17T00:23:19;17.10;1.00
4787;DHT22;62338;48.832;9.422;2022-10-17T00:25:21;17.00;7.40
4787;DHT22;62338;48.832;9.422;2022-10-17T00:27:23;16.90;99.90
4787;DHT22;62338;48.832;9.422;2022-10-17T00:29:25;16.80;99.90
4787;DHT22;62338;48.832;9.422;2022-10-17T00:31:27;16.80;99.90
4787;DHT22;62338;48.832;9.422;2022-10-17T00:33:29;16.70;99.90
4787;DHT22;62338;48.832;9.422;2022-10-17T00:35:31;16.80;99.90
4787;DHT22;62338;48.832;9.422;2022-10-17T00:37:33;16.80;80.60
4787;DHT22;62338;48.832;9.422;2022-10-17T00:39:35;16.90;14.80
4787;DHT22;62338;48.832;9.422;2022-10-17T00:41:37;16.90;1.00
4787;DHT22;62338;48.832;9.422;2022-10-17T00:43:59;17.00;1.00
4787;DHT22;62338;48.832;9.422;2022-10-17T00:46:01;17.10;99.90
4787;DHT22;62338;48.832;9.422;2022-10-17T00:48:06;17.20;99.90
4787;DHT22;62338;48.832;9.422;2022-10-17T00:50:11;17.20;99.90
4787;DHT22;62338;48.832;9.422;2022-10-17T00:52:21;17.10;99.90
4787;DHT22;62338;48.832;9.422;2022-10-17T00:54:30;17.00;1.00
4787;DHT22;62338;48.832;9.422;2022-10-17T00:56:33;16.80;1.00
4787;DHT22;62338;48.832;9.422;2022-10-17T00:58:35;16.80;1.00
4787;DHT22;62338;48.832;9.422;2022-10-17T01:00:37;16.90;1.00
4787;DHT22;62338;48.832;9.422;2022-10-17T01:02:38;17.00;99.90
4787;DHT22;62338;48.832;9.422;2022-10-17T01:04:43;17.10;1.00
4787;DHT22;62338;48.832;9.422;2022-10-17T01:06:45;17.10;99.90
4787;DHT22;62338;48.832;9.422;2022-10-17T01:08:47;16.90;1.00
4787;DHT22;62338;48.832;9.422;2022-10-17T01:11:08;16.80;99.90
4787;DHT22;62338;48.832;9.422;2022-10-17T01:13:25;16.60;1.00
4787;DHT22;62338;48.832;9.422;2022-10-17T01:20:36;16.60;1.00
4787;DHT22;62338;48.832;9.422;2022-10-17T01:25:44;16.60;1.00
4787;DHT22;62338;48.832;9.422;2022-10-17T01:27:59;16.70;1.00
4787;DHT22;62338;48.832;9.422;2022-10-17T01:32:56;16.60;1.00
4787;DHT22;62338;48.832;9.422;2022-10-17T01:35:07;16.60;99.90
4787;DHT22;62338;48.832;9.422;2022-10-17T01:37:33;16.50;99.90
4787;DHT22;62338;48.832;9.422;2022-10-17T01:39:49;16.30;99.90
4787;DHT22;62338;48.832;9.422;2022-10-17T01:44:26;15.90;1.00
4787;DHT22;62338;48.832;9.422;2022-10-17T01:46:37;15.90;1.00
4787;DHT22;62338;48.832;9.422;2022-10-17T01:48:41;15.80;1.00
4787;DHT22;62338;48.832;9.422;2022-10-17T01:50:49;15.80;99.90
4787;DHT22;62338;48.832;9.422;2022-10-17T01:52:55;15.70;99.90
4787;DHT22;62338;48.832;9.422;2022-10-17T01:55:10;15.60;99.90
4787;DHT22;62338;48.832;9.422;2022-10-17T01:57:22;15.60;99.90
4787;DHT22;62338;48.832;9.422;2022-10-17T01:59:34;15.60;1.00
4787;DHT22;62338;48.832;9.422;2022-10-17T02:01:38;15.60;18.20
4787;DHT22;62338;48.832;9.422;2022-10-17T02:03:43;15.70;1.00
4787;DHT22;62338;48.832;9.422;2022-10-17T02:05:46;15.90;99.90
4787;DHT22;62338;48.832;9.422;2022-10-17T02:07:48;16.10;99.90
4787;DHT22;62338;48.832;9.422;2022-10-17T02:09:49;16.30;1.00
4787;DHT22;62338;48.832;9.422;2022-10-17T02:19:36;16.20;1.80
4787;DHT22;62338;48.832;9.422;2022-10-17T02:24:13;16.10;99.90
4787;DHT22;62338;48.832;9.422;2022-10-17T02:26:28;16.10;99.90
4787;DHT22;62338;48.832;9.422;2022-10-17T02:33:46;16.10;1.00
4787;DHT22;62338;48.832;9.422;2022-10-17T02:35:44;16.10;1.00
4787;DHT22;62338;48.832;9.422;2022-10-17T02:37:48;16.00;1.00
4787;DHT22;62338;48.832;9.422;2022-10-17T02:39:53;16.00;99.90
4787;DHT22;62338;48.832;9.422;2022-10-17T02:41:59;16.00;99.90
4787;DHT22;62338;48.832;9.422;2022-10-17T02:44:02;15.90;1.00
4787;DHT22;62338;48.832;9.422;2022-10-17T02:46:05;15.80;99.90
4787;DHT22;62338;48.832;9.422;2022-10-17T02:50:37;15.70;1.00
4787;DHT22;62338;48.832;9.422;2022-10-17T02:53:22;15.60;1.00
4787;DHT22;62338;48.832;9.422;2022-10-17T02:55:30;15.50;1.00
4787;DHT22;62338;48.832;9.422;2022-10-17T02:57:37;15.50;1.00
4787;DHT22;62338;48.832;9.422;2022-10-17T02:59:40;15.50;1.00
4787;DHT22;62338;48.832;9.422;2022-10-17T03:01:43;15.60;1.00
4787;DHT22;62338;48.832;9.422;2022-10-17T03:03:44;15.50;1.00
4787;DHT22;62338;48.832;9.422;2022-10-17T03:05:46;15.50;1.00
4787;DHT22;62338;48.832;9.422;2022-10-17T03:07:49;15.50;1.00
4787;DHT22;62338;48.832;9.422;2022-10-17T03:09:50;15.40;1.00
4787;DHT22;62338;48.832;9.422;2022-10-17T03:11:52;15.40;1.00
4787;DHT22;62338;48.832;9.422;2022-10-17T03:13:54;15.40;1.00
4787;DHT22;62338;48.832;9.422;2022-10-17T03:15:56;15.40;1.00
4787;DHT22;62338;48.832;9.422;2022-10-17T03:17:57;15.30;1.00
4787;DHT22;62338;48.832;9.422;2022-10-17T03:19:59;15.30;1.00
4787;DHT22;62338;48.832;9.422;2022-10-17T03:22:01;15.30;66.50
4787;DHT22;62338;48.832;9.422;2022-10-17T03:24:03;15.30;99.90
4787;DHT22;62338;48.832;9.422;2022-10-17T03:26:06;15.50;99.90
4787;DHT22;62338;48.832;9.422;2022-10-17T03:28:09;15.60;99.90
4787;DHT22;62338;48.832;9.422;2022-10-17T03:30:11;15.70;1.00
4787;DHT22;62338;48.832;9.422;2022-10-17T03:32:13;15.70;99.90
4787;DHT22;62338;48.832;9.422;2022-10-17T03:34:15;15.80;1.00
4787;DHT22;62338;48.832;9.422;2022-10-17T03:36:19;15.90;1.00
4787;DHT22;62338;48.832;9.422;2022-10-17T03:38:20;15.90;1.00
4787;DHT22;62338;48.832;9.422;2022-10-17T03:40:22;15.90;99.90
4787;DHT22;62338;48.832;9.422;2022-10-17T03:42:24;15.80;1.00
4787;DHT22;62338;48.832;9.422;2022-10-17T03:44:25;15.60;1.00
4787;DHT22;62338;48.832;9.422;2022-10-17T03:46:27;15.50;1.00
4787;DHT22;62338;48.832;9.422;2022-10-17T03:48:29;15.50;26.90
4787;DHT22;62338;48.832;9.422;2022-10-17T03:50:31;15.30;1.00
4787;DHT22;62338;48.832;9.422;2022-10-17T03:52:33;15.30;99.90
4787;DHT22;62338;48.832;9.422;2022-10-17T03:54:35;15.20;63.00
4787;DHT22;62338;48.832;9.422;2022-10-17T03:56:36;15.20;99.90
4787;DHT22;62338;48.832;9.422;2022-10-17T03:58:38;15.10;99.90
4787;DHT22;62338;48.832;9.422;2022-10-17T04:00:40;15.10;99.90
4787;DHT22;62338;48.832;9.422;2022-10-17T04:02:42;15.10;99.90
4787;DHT22;62338;48.832;9.422;2022-10-17T04:04:45;15.10;99.90
4787;DHT22;62338;48.832;9.422;2022-10-17T04:06:47;15.10;99.90
4787;DHT22;62338;48.832;9.422;2022-10-17T04:08:49;15.10;99.90
4787;DHT22;62338;48.832;9.422;2022-10-17T04:10:51;15.10;99.90
4787;DHT22;62338;48.832;9.422;2022-10-17T04:12:52;15.00;99.90
4787;DHT22;62338;48.832;9.422;2022-10-17T04:14:54;14.90;99.90
4787;DHT22;62338;48.832;9.422;2022-10-17T04:16:56;14.80;99.90
4787;DHT22;62338;48.832;9.422;2022-10-17T04:18:59;14.70;99.90
4787;DHT22;62338;48.832;9.422;2022-10-17T04:21:02;14.50;1.00
4787;DHT22;62338;48.832;9.422;2022-10-17T04:23:04;14.50;1.00
4787;DHT22;62338;48.832;9.422;2022-10-17T04:25:06;14.40;1.00
4787;DHT22;62338;48.832;9.422;2022-10-17T04:27:07;14.20;1.00
4787;DHT22;62338;48.832;9.422;2022-10-17T04:29:10;14.30;1.00
4787;DHT22;62338;48.832;9.422;2022-10-17T04:31:12;14.40;1.00
4787;DHT22;62338;48.832;9.422;2022-10-17T04:33:14;14.60;99.90
4787;DHT22;62338;48.832;9.422;2022-10-17T04:35:16;14.60;99.90
4787;DHT22;62338;48.832;9.422;2022-10-17T04:37:18;14.80;99.90
4787;DHT22;62338;48.832;9.422;2022-10-17T04:39:19;14.80;99.90
4787;DHT22;62338;48.832;9.422;2022-10-17T04:41:21;14.90;99.90
4787;DHT22;62338;48.832;9.422;2022-10-17T04:43:23;14.90;99.90
4787;DHT22;62338;48.832;9.422;2022-10-17T04:45:24;14.90;99.90
4787;DHT22;62338;48.832;9.422;2022-10-17T04:47:26;14.80;99.90
4787;DHT22;62338;48.832;9.422;2022-10-17T04:49:28;14.70;1.00
4787;DHT22;62338;48.832;9.422;2022-10-17T04:51:30;14.60;99.90
4787;DHT22;62338;48.832;9.422;2022-10-17T04:53:33;14.60;99.90
4787;DHT22;62338;48.832;9.422;2022-10-17T04:55:36;14.70;99.90
4787;DHT22;62338;48.832;9.422;2022-10-17T04:57:38;14.80;99.90
4787;DHT22;62338;48.832;9.422;2022-10-17T04:59:40;14.70;99.90
4787;DHT22;62338;48.832;9.422;2022-10-17T05:01:42;14.70;99.90
4787;DHT22;62338;48.832;9.422;2022-10-17T05:03:44;14.60;99.90
4787;DHT22;62338;48.832;9.422;2022-10-17T05:05:46;14.60;99.90
4787;DHT22;62338;48.832;9.422;2022-10-17T05:07:48;14.60;1.00
4787;DHT22;62338;48.832;9.422;2022-10-17T05:09:50;14.60;1.00
4787;DHT22;62338;48.832;9.422;2022-10-17T05:11:52;14.50;1.00
4787;DHT22;62338;48.832;9.422;2022-10-17T05:13:56;14.50;1.00
4787;DHT22;62338;48.832;9.422;2022-10-17T05:15:59;14.50;1.00
4787;DHT22;62338;48.832;9.422;2022-10-17T05:18:02;14.40;1.00
4787;DHT22;62338;48.832;9.422;2022-10-17T05:20:04;14.40;1.00
4787;DHT22;62338;48.832;9.422;2022-10-17T05:22:06;14.50;1.00
4787;DHT22;62338;48.832;9.422;2022-10-17T05:24:10;14.40;1.00
4787;DHT22;62338;48.832;9.422;2022-10-17T05:26:12;14.40;1.00
4787;DHT22;62338;48.832;9.422;2022-10-17T05:28:14;14.30;1.00
4787;DHT22;62338;48.832;9.422;2022-10-17T05:30:16;14.40;1.00
4787;DHT22;62338;48.832;9.422;2022-10-17T05:32:18;14.40;1.00
4787;DHT22;62338;48.832;9.422;2022-10-17T05:34:19;14.50;1.00
4787;DHT22;62338;48.832;9.422;2022-10-17T05:36:21;14.50;1.00
4787;DHT22;62338;48.832;9.422;2022-10-17T05:38:23;14.50;1.00
4787;DHT22;62338;48.832;9.422;2022-10-17T05:40:25;14.60;1.00
4787;DHT22;62338;48.832;9.422;2022-10-17T05:42:27;14.60;1.00
4787;DHT22;62338;48.832;9.422;2022-10-17T05:44:29;14.70;1.00
4787;DHT22;62338;48.832;9.422;2022-10-17T05:46:31;14.70;1.00
4787;DHT22;62338;48.832;9.422;2022-10-17T05:48:33;14.60;1.00
4787;DHT22;62338;48.832;9.422;2022-10-17T05:50:35;14.60;1.00
4787;DHT22;62338;48.832;9.422;2022-10-17T05:52:36;14.60;1.00
4787;DHT22;62338;48.832;9.422;2022-10-17T05:54:38;14.60;1.00
4787;DHT22;62338;48.832;9.422;2022-10-17T05:56:40;14.70;1.00
4787;DHT22;62338;48.832;9.422;2022-10-17T05:58:42;14.80;1.00
4787;DHT22;62338;48.832;9.422;2022-10-17T06:00:59;15.00;1.00
4787;DHT22;62338;48.832;9.422;2022-10-17T06:03:01;15.20;99.90
4787;DHT22;62338;48.832;9.422;2022-10-17T06:05:03;15.40;99.90
4787;DHT22;62338;48.832;9.422;2022-10-17T06:07:05;15.50;99.90
4787;DHT22;62338;48.832;9.422;2022-10-17T06:09:07;15.60;99.90
4787;DHT22;62338;48.832;9.422;2022-10-17T06:11:09;15.70;99.90
4787;DHT22;62338;48.832;9.422;2022-10-17T06:13:11;15.70;99.90
4787;DHT22;62338;48.832;9.422;2022-10-17T06:15:12;15.70;99.90
4787;DHT22;62338;48.832;9.422;2022-10-17T06:17:14;15.70;99.90
4787;DHT22;62338;48.832;9.422;2022-10-17T06:19:17;15.80;99.90
4787;DHT22;62338;48.832;9.422;2022-10-17T06:21:23;15.90;99.90
4787;DHT22;62338;48.832;9.422;2022-10-17T06:23:25;15.90;99.90
4787;DHT22;62338;48.832;9.422;2022-10-17T06:25:30;15.90;99.90
4787;DHT22;62338;48.832;9.422;2022-10-17T06:27:32;15.80;99.90
4787;DHT22;62338;48.832;9.422;2022-10-17T06:29:34;15.70;99.90
4787;DHT22;62338;48.832;9.422;2022-10-17T06:31:35;15.70;99.90
4787;DHT22;62338;48.832;9.422;2022-10-17T06:33:37;15.70;99.90
4787;DHT22;62338;48.832;9.422;2022-10-17T06:35:39;15.60;99.90
4787;DHT22;62338;48.832;9.422;2022-10-17T06:37:40;15.60;99.90
4787;DHT22;62338;48.832;9.422;2022-10-17T06:39:42;15.60;99.90
4787;DHT22;62338;48.832;9.422;2022-10-17T06:41:44;15.70;99.90
4787;DHT22;62338;48.832;9.422;2022-10-17T06:43:46;15.90;99.90
4787;DHT22;62338;48.832;9.422;2022-10-17T06:45:48;16.10;99.90
4787;DHT22;62338;48.832;9.422;2022-10-17T06:47:49;16.30;99.90
4787;DHT22;62338;48.832;9.422;2022-10-17T06:49:51;16.40;99.90
4787;DHT22;62338;48.832;9.422;2022-10-17T06:51:53;16.70;99.90
4787;DHT22;62338;48.832;9.422;2022-10-17T06:53:56;16.90;99.90
4787;DHT22;62338;48.832;9.422;2022-10-17T06:55:58;17.30;1.00
4787;DHT22;62338;48.832;9.422;2022-10-17T06:58:04;17.80;61.40
4787;DHT22;62338;48.832;9.422;2022-10-17T07:00:06;18.60;1.00
4787;DHT22;62338;48.832;9.422;2022-10-17T07:02:09;19.50;1.00
4787;DHT22;62338;48.832;9.422;2022-10-17T07:04:11;20.40;99.90
4787;DHT22;62338;48.832;9.422;2022-10-17T07:06:13;21.30;99.90
4787;DHT22;62338;48.832;9.422;2022-10-17T07:08:15;22.00;1.00
4787;DHT22;62338;48.832;9.422;2022-10-17T07:10:17;22.50;99.90
4787;DHT22;62338;48.832;9.422;2022-10-17T07:12:19;23.20;99.90
4787;DHT22;62338;48.832;9.422;2022-10-17T07:14:20;24.20;1.00
4787;DHT22;62338;48.832;9.422;2022-10-17T07:16:22;24.90;99.90
4787;DHT22;62338;48.832;9.422;2022-10-17T07:18:24;25.10;99.90
4787;DHT22;62338;48.832;9.422;2022-10-17T07:20:26;25.20;99.90
4787;DHT22;62338;48.832;9.422;2022-10-17T07:22:28;25.10;99.90
4787;DHT22;62338;48.832;9.422;2022-10-17T07:24:29;25.10;99.90
4787;DHT22;62338;48.832;9.422;2022-10-17T07:26:31;24.90;99.90
4787;DHT22;62338;48.832;9.422;2022-10-17T07:28:35;24.90;99.90
4787;DHT22;62338;48.832;9.422;2022-10-17T07:30:37;24.70;99.90
4787;DHT22;62338;48.832;9.422;2022-10-17T07:32:39;25.00;99.90
4787;DHT22;62338;48.832;9.422;2022-10-17T07:34:41;25.50;99.90
4787;DHT22;62338;48.832;9.422;2022-10-17T07:36:42;26.50;99.90
4787;DHT22;62338;48.832;9.422;2022-10-17T07:38:44;26.80;99.90
4787;DHT22;62338;48.832;9.422;2022-10-17T07:40:55;26.80;99.90
4787;DHT22;62338;48.832;9.422;2022-10-17T07:42:57;26.10;99.90
4787;DHT22;62338;48.832;9.422;2022-10-17T07:44:59;25.30;99.90
4787;DHT22;62338;48.832;9.422;2022-10-17T07:47:01;24.50;99.90
4787;DHT22;62338;48.832;9.422;2022-10-17T07:49:02;23.90;99.90
4787;DHT22;62338;48.832;9.422;2022-10-17T07:51:06;23.60;99.90
4787;DHT22;62338;48.832;9.422;2022-10-17T07:53:08;23.40;99.90
4787;DHT22;62338;48.832;9.422;2022-10-17T07:55:10;23.70;99.90
4787;DHT22;62338;48.832;9.422;2022-10-17T07:57:11;23.90;99.90
4787;DHT22;62338;48.832;9.422;2022-10-17T07:59:13;24.30;99.90
4787;DHT22;62338;48.832;9.422;2022-10-17T08:01:15;24.70;99.90
4787;DHT22;62338;48.832;9.422;2022-10-17T08:03:17;25.30;99.90
4787;DHT22;62338;48.832;9.422;2022-10-17T08:05:19;25.80;99.90
4787;DHT22;62338;48.832;9.422;2022-10-17T08:07:21;26.50;99.90
4787;DHT22;62338;48.832;9.422;2022-10-17T08:09:29;26.30;99.90
4787;DHT22;62338;48.832;9.422;2022-10-17T08:11:31;26.60;99.90
4787;DHT22;62338;48.832;9.422;2022-10-17T08:13:33;27.10;99.90
4787;DHT22;62338;48.832;9.422;2022-10-17T08:15:36;27.70;99.90
4787;DHT22;62338;48.832;9.422;2022-10-17T08:17:38;27.80;99.90
4787;DHT22;62338;48.832;9.422;2022-10-17T08:19:39;27.30;99.90
4787;DHT22;62338;48.832;9.422;2022-10-17T08:21:41;27.60;99.90
4787;DHT22;62338;48.832;9.422;2022-10-17T08:23:45;28.10;99.90
4787;DHT22;62338;48.832;9.422;2022-10-17T08:25:46;28.20;92.90
4787;DHT22;62338;48.832;9.422;2022-10-17T08:27:48;27.50;77.40
4787;DHT22;62338;48.832;9.422;2022-10-17T08:29:51;26.20;99.90
4787;DHT22;62338;48.832;9.422;2022-10-17T08:31:53;26.20;99.90
4787;DHT22;62338;48.832;9.422;2022-10-17T08:34:01;26.80;99.90
4787;DHT22;62338;48.832;9.422;2022-10-17T08:36:05;26.80;99.90
4787;DHT22;62338;48.832;9.422;2022-10-17T08:38:07;26.20;99.90
4787;DHT22;62338;48.832;9.422;2022-10-17T08:40:20;25.80;99.90
4787;DHT22;62338;48.832;9.422;2022-10-17T08:43:36;26.60;99.90
4787;DHT22;62338;48.832;9.422;2022-10-17T08:45:20;27.10;99.90
4787;DHT22;62338;48.832;9.422;2022-10-17T08:47:37;27.10;99.90
4787;DHT22;62338;48.832;9.422;2022-10-17T08:49:50;27.20;99.90
4787;DHT22;62338;48.832;9.422;2022-10-17T08:51:58;27.00;99.90
4787;DHT22;62338;48.832;9.422;2022-10-17T08:54:15;26.50;99.90
4787;DHT22;62338;48.832;9.422;2022-10-17T08:56:20;26.30;99.90
4787;DHT22;62338;48.832;9.422;2022-10-17T08:58:43;25.40;99.90
4787;DHT22;62338;48.832;9.422;2022-10-17T09:00:57;25.70;99.90
4787;DHT22;62338;48.832;9.422;2022-10-17T09:17:05;27.40;99.90
4787;DHT22;62338;48.832;9.422;2022-10-17T09:19:22;27.50;99.90
4787;DHT22;62338;48.832;9.422;2022-10-17T09:23:55;27.40;99.90
4787;DHT22;62338;48.832;9.422;2022-10-17T09:26:10;27.40;99.90
4787;DHT22;62338;48.832;9.422;2022-10-17T09:28:42;27.40;99.90
4787;DHT22;62338;48.832;9.422;2022-10-17T09:30:46;27.00;99.90
4787;DHT22;62338;48.832;9.422;2022-10-17T09:32:52;27.80;99.90
4787;DHT22;62338;48.832;9.422;2022-10-17T09:34:54;28.10;99.90
4787;DHT22;62338;48.832;9.422;2022-10-17T09:37:00;27.50;93.80
4787;DHT22;62338;48.832;9.422;2022-10-17T09:39:23;27.10;99.90
4787;DHT22;62338;48.832;9.422;2022-10-17T09:41:38;27.80;99.90
4787;DHT22;62338;48.832;9.422;2022-10-17T09:43:48;28.00;98.40
4787;DHT22;62338;48.832;9.422;2022-10-17T09:46:00;27.10;99.90
4787;DHT22;62338;48.832;9.422;2022-10-17T09:50:32;26.50;99.10
4787;DHT22;62338;48.832;9.422;2022-10-17T09:52:39;26.80;99.90
4787;DHT22;62338;48.832;9.422;2022-10-17T09:54:51;27.00;99.90
4787;DHT22;62338;48.832;9.422;2022-10-17T09:57:07;27.20;99.90
4787;DHT22;62338;48.832;9.422;2022-10-17T09:59:09;27.00;98.80
4787;DHT22;62338;48.832;9.422;2022-10-17T10:01:40;26.80;99.90
4787;DHT22;62338;48.832;9.422;2022-10-17T10:03:42;26.20;93.60
4787;DHT22;62338;48.832;9.422;2022-10-17T10:06:04;25.50;99.90
4787;DHT22;62338;48.832;9.422;2022-10-17T10:08:16;26.00;99.90
4787;DHT22;62338;48.832;9.422;2022-10-17T10:10:24;26.30;99.90
4787;DHT22;62338;48.832;9.422;2022-10-17T10:12:31;26.20;99.90
4787;DHT22;62338;48.832;9.422;2022-10-17T10:14:36;26.60;99.90
4787;DHT22;62338;48.832;9.422;2022-10-17T10:16:44;26.60;99.90
4787;DHT22;62338;48.832;9.422;2022-10-17T10:18:48;26.40;99.90
4787;DHT22;62338;48.832;9.422;2022-10-17T10:21:20;26.90;99.90
4787;DHT22;62338;48.832;9.422;2022-10-17T10:23:22;27.50;99.90
4787;DHT22;62338;48.832;9.422;2022-10-17T10:25:24;27.50;99.90
4787;DHT22;62338;48.832;9.422;2022-10-17T10:27:27;27.70;96.40
4787;DHT22;62338;48.832;9.422;2022-10-17T10:29:35;27.70;99.90
4787;DHT22;62338;48.832;9.422;2022-10-17T10:31:38;27.90;99.90
4787;DHT22;62338;48.832;9.422;2022-10-17T10:33:42;28.10;99.90
4787;DHT22;62338;48.832;9.422;2022-10-17T10:36:01;28.00;93.20
4787;DHT22;62338;48.832;9.422;2022-10-17T10:38:09;27.70;90.60
4787;DHT22;62338;48.832;9.422;2022-10-17T10:42:39;27.30;97.70
4787;DHT22;62338;48.832;9.422;2022-10-17T10:44:41;27.30;97.80
4787;DHT22;62338;48.832;9.422;2022-10-17T10:46:43;27.10;99.90
4787;DHT22;62338;48.832;9.422;2022-10-17T10:51:11;26.60;99.90
4787;DHT22;62338;48.832;9.422;2022-10-17T10:57:55;26.50;99.90
4787;DHT22;62338;48.832;9.422;2022-10-17T11:00:18;26.20;99.90
4787;DHT22;62338;48.832;9.422;2022-10-17T11:04:29;25.30;99.90
4787;DHT22;62338;48.832;9.422;2022-10-17T11:06:36;25.30;99.90
4787;DHT22;62338;48.832;9.422;2022-10-17T11:09:10;25.40;99.90
4787;DHT22;62338;48.832;9.422;2022-10-17T11:11:16;25.60;99.90
4787;DHT22;62338;48.832;9.422;2022-10-17T11:13:28;25.70;99.90
4787;DHT22;62338;48.832;9.422;2022-10-17T11:17:44;26.20;99.90
4787;DHT22;62338;48.832;9.422;2022-10-17T11:19:51;26.40;99.90
4787;DHT22;62338;48.832;9.422;2022-10-17T11:22:15;26.40;99.90
4787;DHT22;62338;48.832;9.422;2022-10-17T11:24:43;26.50;99.90
4787;DHT22;62338;48.832;9.422;2022-10-17T11:26:59;26.70;99.90
4787;DHT22;62338;48.832;9.422;2022-10-17T11:29:02;26.80;99.90
4787;DHT22;62338;48.832;9.422;2022-10-17T11:31:11;26.90;99.90
4787;DHT22;62338;48.832;9.422;2022-10-17T11:35:59;25.90;99.90
4787;DHT22;62338;48.832;9.422;2022-10-17T11:40:28;25.70;99.90
4787;DHT22;62338;48.832;9.422;2022-10-17T11:44:55;25.90;99.90
4787;DHT22;62338;48.832;9.422;2022-10-17T11:47:05;25.90;99.90
4787;DHT22;62338;48.832;9.422;2022-10-17T11:49:14;26.10;99.90
4787;DHT22;62338;48.832;9.422;2022-10-17T11:51:20;26.30;99.90
4787;DHT22;62338;48.832;9.422;2022-10-17T11:53:49;26.40;99.90
4787;DHT22;62338;48.832;9.422;2022-10-17T11:55:57;26.40;99.90
4787;DHT22;62338;48.832;9.422;2022-10-17T12:02:49;27.10;99.90
4787;DHT22;62338;48.832;9.422;2022-10-17T12:04:57;27.30;99.90
4787;DHT22;62338;48.832;9.422;2022-10-17T12:07:24;27.30;99.90
4787;DHT22;62338;48.832;9.422;2022-10-17T12:12:02;28.20;99.20
4787;DHT22;62338;48.832;9.422;2022-10-17T12:16:43;28.10;58.80
4787;DHT22;62338;48.832;9.422;2022-10-17T12:18:47;28.00;48.40
4787;DHT22;62338;48.832;9.422;2022-10-17T12:20:59;27.90;48.80
4787;DHT22;62338;48.832;9.422;2022-10-17T12:25:21;28.00;62.60
4787;DHT22;62338;48.832;9.422;2022-10-17T12:27:43;28.20;58.90
4787;DHT22;62338;48.832;9.422;2022-10-17T12:29:46;28.10;74.70
4787;DHT22;62338;48.832;9.422;2022-10-17T12:31:48;27.80;99.90
4787;DHT22;62338;48.832;9.422;2022-10-17T12:33:55;28.10;80.20
4787;DHT22;62338;48.832;9.422;2022-10-17T12:38:22;28.20;81.00
4787;DHT22;62338;48.832;9.422;2022-10-17T12:42:45;28.70;42.00
4787;DHT22;62338;48.832;9.422;2022-10-17T12:44:48;28.60;40.40
4787;DHT22;62338;48.832;9.422;2022-10-17T12:49:37;28.40;35.10
4787;DHT22;62338;48.832;9.422;2022-10-17T12:53:01;28.70;29.80
4787;DHT22;62338;48.832;9.422;2022-10-17T12:54:30;28.40;19.20
4787;DHT22;62338;48.832;9.422;2022-10-17T12:56:58;28.60;13.20
4787;DHT22;62338;48.832;9.422;2022-10-17T12:58:59;28.40;11.60
4787;DHT22;62338;48.832;9.422;2022-10-17T13:01:03;28.40;19.30
4787;DHT22;62338;48.832;9.422;2022-10-17T13:03:27;28.40;11.90
4787;DHT22;62338;48.832;9.422;2022-10-17T13:05:33;28.10;1.00
4787;DHT22;62338;48.832;9.422;2022-10-17T13:07:35;28.00;1.00
4787;DHT22;62338;48.832;9.422;2022-10-17T13:09:42;27.90;1.00
4787;DHT22;62338;48.832;9.422;2022-10-17T13:11:44;28.00;1.00
4787;DHT22;62338;48.832;9.422;2022-10-17T13:13:51;27.90;2.50
4787;DHT22;62338;48.832;9.422;2022-10-17T13:15:54;27.90;2.70
4787;DHT22;62338;48.832;9.422;2022-10-17T13:17:57;27.90;10.10
4787;DHT22;62338;48.832;9.422;2022-10-17T13:20:00;28.10;8.40
4787;DHT22;62338;48.832;9.422;2022-10-17T13:22:02;28.20;6.50
4787;DHT22;62338;48.832;9.422;2022-10-17T13:26:25;28.10;1.00
4787;DHT22;62338;48.832;9.422;2022-10-17T13:28:27;28.10;1.00
4787;DHT22;62338;48.832;9.422;2022-10-17T13:30:32;28.00;3.20
4787;DHT22;62338;48.832;9.422;2022-10-17T13:32:37;28.00;43.80
4787;DHT22;62338;48.832;9.422;2022-10-17T13:34:39;28.00;90.70
4787;DHT22;62338;48.832;9.422;2022-10-17T13:36:42;28.20;99.90
4787;DHT22;62338;48.832;9.422;2022-10-17T13:38:49;28.50;99.90
4787;DHT22;62338;48.832;9.422;2022-10-17T13:40:50;28.10;99.90
4787;DHT22;62338;48.832;9.422;2022-10-17T13:43:02;28.20;99.90
4787;DHT22;62338;48.832;9.422;2022-10-17T13:47:26;28.40;99.90
4787;DHT22;62338;48.832;9.422;2022-10-17T13:49:41;28.50;99.90
4787;DHT22;62338;48.832;9.422;2022-10-17T13:51:45;28.60;99.90
4787;DHT22;62338;48.832;9.422;2022-10-17T13:53:47;28.70;99.90
4787;DHT22;62338;48.832;9.422;2022-10-17T13:58:16;28.20;99.90
4787;DHT22;62338;48.832;9.422;2022-10-17T14:00:19;27.50;99.90
4787;DHT22;62338;48.832;9.422;2022-10-17T14:02:25;27.40;99.90
4787;DHT22;62338;48.832;9.422;2022-10-17T14:04:28;27.10;99.90
4787;DHT22;62338;48.832;9.422;2022-10-17T14:06:45;27.10;99.90
4787;DHT22;62338;48.832;9.422;2022-10-17T14:09:05;27.00;99.90
4787;DHT22;62338;48.832;9.422;2022-10-17T14:11:22;27.00;99.90
4787;DHT22;62338;48.832;9.422;2022-10-17T14:13:26;27.00;99.90
4787;DHT22;62338;48.832;9.422;2022-10-17T14:15:30;26.80;99.90
4787;DHT22;62338;48.832;9.422;2022-10-17T14:17:32;26.80;99.90
4787;DHT22;62338;48.832;9.422;2022-10-17T14:19:35;26.80;99.90
4787;DHT22;62338;48.832;9.422;2022-10-17T14:21:38;26.80;1.00
4787;DHT22;62338;48.832;9.422;2022-10-17T14:23:45;26.60;99.90
4787;DHT22;62338;48.832;9.422;2022-10-17T14:25:47;26.40;99.90
4787;DHT22;62338;48.832;9.422;2022-10-17T14:27:54;26.20;99.90
4787;DHT22;62338;48.832;9.422;2022-10-17T14:30:00;25.90;1.00
4787;DHT22;62338;48.832;9.422;2022-10-17T14:32:05;25.70;1.00
4787;DHT22;62338;48.832;9.422;2022-10-17T14:34:20;25.50;1.00
4787;DHT22;62338;48.832;9.422;2022-10-17T14:36:36;25.30;1.00
4787;DHT22;62338;48.832;9.422;2022-10-17T14:38:47;25.00;1.00
4787;DHT22;62338;48.832;9.422;2022-10-17T14:40:58;24.80;99.90
4787;DHT22;62338;48.832;9.422;2022-10-17T14:43:23;24.60;99.90
4787;DHT22;62338;48.832;9.422;2022-10-17T14:45:31;24.20;1.00
4787;DHT22;62338;48.832;9.422;2022-10-17T14:47:33;23.80;1.00
4787;DHT22;62338;48.832;9.422;2022-10-17T14:49:48;23.40;99.90
4787;DHT22;62338;48.832;9.422;2022-10-17T14:52:29;23.10;89.80
4787;DHT22;62338;48.832;9.422;2022-10-17T14:54:34;22.90;99.90
4787;DHT22;62338;48.832;9.422;2022-10-17T14:56:39;22.80;38.80
4787;DHT22;62338;48.832;9.422;2022-10-17T14:58:41;22.60;1.00
4787;DHT22;62338;48.832;9.422;2022-10-17T15:00:43;22.50;99.90
4787;DHT22;62338;48.832;9.422;2022-10-17T15:02:46;22.50;99.90
4787;DHT22;62338;48.832;9.422;2022-10-17T15:04:48;22.50;1.00
4787;DHT22;62338;48.832;9.422;2022-10-17T15:06:53;22.40;99.90
4787;DHT22;62338;48.832;9.422;2022-10-17T15:08:56;22.30;1.00